Time;durP1;ratioP1;P1;durP2;ratioP2;P2;SDS_P1;SDS_P2;PMS_P1;PMS_P2;Temp;Humidity;BMP_temperature;BMP_pressure;BME280_temperature;BME280_humidity;BME280_pressure;Samples;Min_cycle;Max_cycle;Signal;HPM_P1;HPM_P2
2022/04/26 03:37:06;;;;;;;60.22;35.33;;;7.90;99.90;;;;;;5050027;28;20036;-51
2022/04/26 03:39:32;;;;;;;65.20;36.13;;;7.90;99.90;;;;;;5049646;28;20032;-50
2022/04/26 03:42:02;;;;;;;64.73;36.73;;;7.90;99.90;;;;;;5049806;28;20025;-51
2022/04/26 03:44:28;;;;;;;60.45;36.25;;;7.80;99.90;;;;;;5049441;28;20264;-49
2022/04/26 03:46:54;;;;;;;55.42;34.72;;;7.80;99.90;;;;;;5049483;28;20076;-51
2022/04/26 03:49:22;;;;;;;54.92;34.38;;;7.90;99.90;;;;;;5049596;28;20057;-50
2022/04/26 03:51:48;;;;;;;57.15;33.22;;;7.90;99.90;;;;;;5049710;28;20567;-49
2022/04/26 03:54:13;;;;;;;55.50;34.20;;;7.90;99.90;;;;;;5053540;28;20107;-51
2022/04/26 03:56:39;;;;;;;62.10;35.72;;;7.90;99.90;;;;;;5053807;28;20029;-53
2022/04/26 03:59:05;;;;;;;64.63;37.25;;;7.90;99.90;;;;;;5053814;28;20112;-52
2022/04/26 04:01:30;;;;;;;64.50;40.05;;;7.90;99.90;;;;;;5053267;28;20128;-50
2022/04/26 04:03:56;;;;;;;67.95;41.05;;;7.90;99.90;;;;;;5053643;28;20031;-52
2022/04/26 04:06:21;;;;;;;66.80;41.15;;;7.90;99.90;;;;;;5044869;28;20083;-50
2022/04/26 04:08:47;;;;;;;56.08;35.83;;;7.90;99.90;;;;;;5033739;28;20117;-50
2022/04/26 04:11:13;;;;;;;56.60;34.05;;;7.80;99.90;;;;;;5015833;28;20064;-51
2022/04/26 04:13:39;;;;;;;55.58;33.15;;;7.70;99.90;;;;;;5033405;28;20021;-50
2022/04/26 04:16:05;;;;;;;54.92;33.50;;;7.70;99.90;;;;;;5033349;28;20033;-50
2022/04/26 04:21:15;;;;;;;55.78;34.55;;;7.70;99.90;;;;;;5053576;28;20107;-50
2022/04/26 04:23:41;;;;;;;62.30;34.05;;;7.70;99.90;;;;;;5053267;28;20025;-49
2022/04/26 04:26:10;;;;;;;59.78;35.45;;;7.70;99.90;;;;;;5052924;28;20464;-49
2022/04/26 04:28:36;;;;;;;57.80;35.60;;;7.70;99.90;;;;;;5034859;28;20033;-50
2022/04/26 04:31:01;;;;;;;56.10;33.47;;;7.70;99.90;;;;;;5052961;28;20032;-50
2022/04/26 04:33:27;;;;;;;63.25;34.88;;;7.70;99.90;;;;;;5052934;28;20093;-51
2022/04/26 04:35:53;;;;;;;58.15;34.78;;;7.70;99.90;;;;;;5052798;28;20101;-51
2022/04/26 04:38:19;;;;;;;56.67;34.15;;;7.70;99.90;;;;;;5053193;28;20029;-51
2022/04/26 04:40:45;;;;;;;57.80;33.53;;;7.80;99.90;;;;;;5052697;28;20435;-51
2022/04/26 04:43:11;;;;;;;55.95;34.83;;;7.80;99.90;;;;;;5034601;28;20032;-50
2022/04/26 04:45:38;;;;;;;58.40;32.97;;;7.80;99.90;;;;;;5052413;28;20579;-50
2022/04/26 04:48:05;;;;;;;59.93;33.70;;;7.80;99.90;;;;;;5052563;28;20025;-51
2022/04/26 04:50:32;;;;;;;63.50;35.75;;;7.90;99.90;;;;;;5052899;28;20029;-50
2022/04/26 04:52:58;;;;;;;64.25;35.13;;;7.90;99.90;;;;;;5052433;28;20420;-51
2022/04/26 04:55:24;;;;;;;61.58;34.65;;;7.90;99.90;;;;;;5052451;28;20384;-51
2022/04/26 04:57:50;;;;;;;66.47;35.00;;;7.80;99.90;;;;;;5052447;28;20111;-51
2022/04/26 05:00:16;;;;;;;56.60;35.17;;;7.80;99.90;;;;;;5052484;28;20032;-50
2022/04/26 05:02:41;;;;;;;55.50;35.00;;;7.90;99.90;;;;;;5051952;28;20076;-51
2022/04/26 05:05:08;;;;;;;60.47;32.70;;;8.00;99.90;;;;;;5051993;28;20508;-51
2022/04/26 05:07:33;;;;;;;62.55;35.17;;;8.00;99.90;;;;;;5034295;28;20061;-50
2022/04/26 05:09:59;;;;;;;58.70;34.38;;;8.00;99.90;;;;;;5032153;28;20053;-52
2022/04/26 05:12:25;;;;;;;60.47;36.78;;;8.00;99.90;;;;;;5032269;28;20099;-50
2022/04/26 05:14:50;;;;;;;65.20;37.95;;;8.00;99.90;;;;;;5032288;28;20100;-51
2022/04/26 05:17:16;;;;;;;60.80;35.90;;;8.00;99.90;;;;;;5032305;28;20025;-50
2022/04/26 05:19:42;;;;;;;59.47;35.10;;;7.90;99.90;;;;;;5051947;28;20711;-50
2022/04/26 05:22:11;;;;;;;59.47;35.28;;;7.90;99.90;;;;;;5051928;28;20059;-50
2022/04/26 05:24:58;;;;;;;61.03;35.55;;;7.90;99.90;;;;;;5051717;28;20431;-51
2022/04/26 05:27:31;;;;;;;63.28;35.92;;;7.90;99.90;;;;;;5052119;28;20028;-53
2022/04/26 05:29:57;;;;;;;62.78;34.70;;;7.90;99.90;;;;;;5051816;28;20021;-52
2022/04/26 05:32:28;;;;;;;60.40;35.30;;;8.00;99.90;;;;;;5051793;28;20021;-50
2022/04/26 05:34:59;;;;;;;67.22;35.90;;;8.00;99.90;;;;;;5051293;28;20291;-50
2022/04/26 05:37:32;;;;;;;58.00;33.90;;;8.00;99.90;;;;;;5051721;28;20067;-52
2022/04/26 05:40:01;;;;;;;67.07;34.42;;;8.00;99.90;;;;;;5051839;28;20036;-52
2022/04/26 05:42:31;;;;;;;68.03;36.05;;;7.90;99.90;;;;;;5051673;28;20025;-54
2022/04/26 05:44:57;;;;;;;62.35;34.25;;;8.00;99.90;;;;;;5051443;28;20088;-52
2022/04/26 05:47:23;;;;;;;66.78;35.00;;;8.10;99.90;;;;;;5051392;28;20033;-51
2022/04/26 05:49:49;;;;;;;64.85;35.38;;;8.10;99.90;;;;;;5051790;28;20387;-51
2022/04/26 05:52:15;;;;;;;70.70;35.25;;;8.10;99.90;;;;;;5051398;28;20029;-51
2022/04/26 05:54:40;;;;;;;61.72;33.15;;;8.10;99.90;;;;;;5051618;28;20021;-53
2022/04/26 05:57:06;;;;;;;59.25;33.67;;;8.20;99.90;;;;;;5051458;28;20079;-52
2022/04/26 05:59:32;;;;;;;63.58;34.47;;;8.20;99.90;;;;;;5051457;28;20017;-51
2022/04/26 06:01:58;;;;;;;62.05;34.38;;;8.20;99.90;;;;;;5051009;28;20033;-51
2022/04/26 06:04:26;;;;;;;61.88;33.60;;;8.10;99.90;;;;;;5051214;28;20484;-51
2022/04/26 06:06:52;;;;;;;58.33;32.80;;;8.10;99.90;;;;;;5038477;28;20036;-51
2022/04/26 06:09:19;;;;;;;57.20;30.98;;;8.20;99.90;;;;;;5031283;28;20076;-51
2022/04/26 06:11:45;;;;;;;59.47;32.00;;;8.20;99.90;;;;;;5031069;28;20033;-49
2022/04/26 06:14:10;;;;;;;57.58;32.22;;;8.20;99.90;;;;;;5031132;28;20036;-51
2022/04/26 06:16:36;;;;;;;54.92;32.63;;;8.20;99.90;;;;;;5030083;28;20032;-51
2022/04/26 06:19:02;;;;;;;56.58;32.38;;;8.30;99.90;;;;;;5045153;28;20028;-51
2022/04/26 06:21:28;;;;;;;54.78;31.63;;;8.30;99.90;;;;;;5051026;28;20083;-51
2022/04/26 06:23:53;;;;;;;56.00;33.28;;;8.40;99.90;;;;;;5050828;28;20079;-50
2022/04/26 06:26:19;;;;;;;57.78;32.78;;;8.40;99.90;;;;;;5050684;28;20087;-50
2022/04/26 06:28:45;;;;;;;56.47;32.85;;;8.40;99.90;;;;;;5050880;28;20021;-50
2022/04/26 06:31:10;;;;;;;65.03;40.22;;;8.40;99.90;;;;;;5050764;28;20029;-51
2022/04/26 06:33:37;;;;;;;66.57;39.10;;;8.30;99.90;;;;;;5050860;28;20025;-52
2022/04/26 06:36:03;;;;;;;70.13;41.33;;;8.40;99.90;;;;;;5050648;28;20064;-53
2022/04/26 06:38:29;;;;;;;67.00;39.75;;;8.50;99.90;;;;;;5050575;28;20469;-53
2022/04/26 06:40:54;;;;;;;66.05;40.17;;;8.50;99.90;;;;;;5050594;28;20047;-52
2022/04/26 06:43:20;;;;;;;66.10;38.17;;;8.50;99.90;;;;;;5050446;28;20488;-51
2022/04/26 06:45:46;;;;;;;59.63;35.38;;;8.60;99.90;;;;;;5050141;28;20052;-52
2022/04/26 06:48:13;;;;;;;61.75;35.30;;;8.70;99.90;;;;;;5050371;28;20039;-53
2022/04/26 06:50:39;;;;;;;60.90;34.03;;;8.70;99.90;;;;;;5050420;28;20021;-52
2022/04/26 06:53:05;;;;;;;54.55;33.55;;;8.80;99.90;;;;;;5050479;28;20037;-52
2022/04/26 06:55:32;;;;;;;61.78;34.53;;;8.80;99.90;;;;;;5050416;28;20021;-52
2022/04/26 06:57:58;;;;;;;56.40;35.40;;;8.80;99.90;;;;;;5050154;28;20126;-53
2022/04/26 07:00:23;;;;;;;59.33;36.40;;;8.80;99.90;;;;;;5050241;28;20096;-51
2022/04/26 07:02:49;;;;;;;65.82;37.20;;;8.80;99.90;;;;;;5050169;28;20821;-53
2022/04/26 07:05:15;;;;;;;59.20;37.35;;;8.80;99.90;;;;;;5050215;28;20436;-52
2022/04/26 07:07:41;;;;;;;61.67;37.13;;;8.90;99.90;;;;;;5031066;28;20067;-51
2022/04/26 07:10:07;;;;;;;63.40;37.15;;;9.00;99.90;;;;;;5030281;28;20484;-52
2022/04/26 07:12:34;;;;;;;66.50;37.27;;;9.10;99.90;;;;;;5012256;28;20079;-51
2022/04/26 07:15:00;;;;;;;68.40;38.70;;;9.10;99.90;;;;;;5030108;28;20690;-51
2022/04/26 07:17:26;;;;;;;59.08;36.50;;;9.10;99.90;;;;;;5031060;28;20112;-53
2022/04/26 07:19:52;;;;;;;68.07;38.03;;;9.20;99.90;;;;;;5050108;28;20035;-51
2022/04/26 07:22:18;;;;;;;53.25;32.15;;;9.10;99.90;;;;;;5049977;28;20060;-52
2022/04/26 07:24:46;;;;;;;56.97;33.78;;;9.10;99.90;;;;;;5049790;28;20057;-50
2022/04/26 07:27:11;;;;;;;60.72;34.33;;;9.10;99.90;;;;;;5049490;28;20048;-51
2022/04/26 07:29:41;;;;;;;59.67;34.17;;;9.10;99.90;;;;;;5050185;28;20036;-51
2022/04/26 07:32:07;;;;;;;54.67;32.88;;;9.20;99.90;;;;;;5050128;28;20029;-55
2022/04/26 07:34:33;;;;;;;56.90;33.72;;;9.10;99.90;;;;;;5049556;28;20047;-51
2022/04/26 07:37:02;;;;;;;55.10;32.47;;;9.00;99.90;;;;;;5050043;28;20107;-51
2022/04/26 07:39:28;;;;;;;52.22;29.98;;;9.00;99.90;;;;;;5049701;28;20032;-50
2022/04/26 07:41:54;;;;;;;47.10;30.27;;;9.00;99.90;;;;;;5049246;28;20477;-51
2022/04/26 07:44:20;;;;;;;52.13;31.42;;;9.10;99.90;;;;;;5049747;28;20033;-53
2022/04/26 07:46:48;;;;;;;51.95;31.45;;;9.20;99.90;;;;;;5031131;28;20047;-52
2022/04/26 07:49:15;;;;;;;48.97;29.92;;;9.30;99.90;;;;;;5049541;28;20021;-52
2022/04/26 07:51:43;;;;;;;52.90;30.35;;;9.30;99.90;;;;;;5049833;28;20039;-52
2022/04/26 07:54:10;;;;;;;46.80;29.83;;;9.30;99.90;;;;;;5049567;28;20377;-50
2022/04/26 07:56:35;;;;;;;49.47;27.83;;;9.40;99.90;;;;;;5049372;28;20032;-52
2022/04/26 07:59:03;;;;;;;50.45;29.88;;;9.40;99.90;;;;;;5049571;28;20021;-51
2022/04/26 08:01:30;;;;;;;46.95;29.38;;;9.40;99.90;;;;;;5049692;28;20025;-53
2022/04/26 08:03:57;;;;;;;48.33;29.10;;;9.40;99.90;;;;;;5049319;28;20059;-53
2022/04/26 08:06:23;;;;;;;44.47;26.40;;;9.40;99.90;;;;;;5041196;28;20049;-52
2022/04/26 08:08:48;;;;;;;37.55;24.42;;;9.40;99.90;;;;;;5029576;28;20056;-50
2022/04/26 08:11:14;;;;;;;40.28;26.50;;;9.40;99.90;;;;;;5029344;28;20049;-53
2022/04/26 08:13:40;;;;;;;43.67;27.63;;;9.50;99.90;;;;;;5029347;28;20052;-51
2022/04/26 08:16:07;;;;;;;48.47;27.85;;;9.60;99.90;;;;;;5029617;28;20103;-51
2022/04/26 08:18:33;;;;;;;44.25;27.70;;;9.60;99.90;;;;;;5039483;28;20113;-52
2022/04/26 08:20:59;;;;;;;41.88;27.05;;;9.70;99.90;;;;;;5049234;28;20108;-51
2022/04/26 08:23:25;;;;;;;43.13;27.05;;;9.80;99.90;;;;;;5049265;28;20029;-52
2022/04/26 08:28:36;;;;;;;47.80;27.70;;;9.90;99.90;;;;;;5049226;28;20040;-50
2022/04/26 08:31:01;;;;;;;42.53;27.70;;;9.90;99.90;;;;;;5049501;28;20036;-50
2022/04/26 08:33:29;;;;;;;40.40;25.23;;;10.00;99.90;;;;;;5049239;28;20029;-50
2022/04/26 08:35:56;;;;;;;42.67;26.38;;;10.10;99.90;;;;;;5049037;28;20080;-51
2022/04/26 08:38:21;;;;;;;43.65;26.75;;;10.20;99.90;;;;;;5049722;28;20021;-50
2022/04/26 08:40:48;;;;;;;46.53;26.85;;;10.20;99.90;;;;;;5052791;28;20040;-50
2022/04/26 08:43:13;;;;;;;41.72;26.38;;;10.10;99.90;;;;;;5052331;28;20050;-51
2022/04/26 08:45:40;;;;;;;39.58;24.50;;;10.20;99.90;;;;;;5034995;28;20064;-50
2022/04/26 08:50:59;;;;;;;44.13;25.97;;;10.00;99.90;;;;;;5052478;28;20090;-50
2022/04/26 08:53:26;;;;;;;38.58;26.33;;;10.00;99.90;;;;;;5047614;28;20028;-50
2022/04/26 08:55:53;;;;;;;53.80;25.27;;;9.90;99.90;;;;;;5045567;28;20420;-51
2022/04/26 08:58:20;;;;;;;40.35;25.90;;;10.00;99.90;;;;;;5051472;28;20032;-50
2022/04/26 09:01:06;;;;;;;41.95;26.90;;;10.10;99.90;;;;;;5050850;28;20480;-50
2022/04/26 09:03:33;;;;;;;42.22;26.05;;;10.10;99.90;;;;;;5052074;28;20225;-50
2022/04/26 09:06:07;;;;;;;43.63;26.65;;;10.20;99.90;;;;;;5051806;28;20079;-50
2022/04/26 09:08:35;;;;;;;38.35;24.88;;;10.20;99.90;;;;;;5050301;28;20032;-50
2022/04/26 09:11:01;;;;;;;;;;;10.10;99.90;;;;;;5050767;28;20024;-52
2022/04/26 09:13:27;;;;;;;37.95;23.45;;;10.10;99.90;;;;;;5050308;28;20342;-50
2022/04/26 09:15:56;;;;;;;40.75;25.05;;;10.20;99.90;;;;;;5049881;28;20029;-51
2022/04/26 09:18:24;;;;;;;40.40;25.55;;;10.30;99.90;;;;;;5041973;28;20087;-50
2022/04/26 09:20:56;;;;;;;48.17;28.88;;;10.40;99.90;;;;;;5031224;28;20018;-53
2022/04/26 09:23:28;;;;;;;42.30;25.80;;;10.50;99.90;;;;;;5031936;28;20025;-52
2022/04/26 09:26:15;;;;;;;36.40;23.00;;;10.60;99.90;;;;;;5031637;28;20041;-51
2022/04/26 09:28:44;;;;;;;45.00;26.70;;;10.70;99.90;;;;;;5031831;28;20022;-52
2022/04/26 09:31:30;;;;;;;49.10;28.00;;;10.70;99.90;;;;;;5043623;28;20154;-53
2022/04/26 09:34:04;;;;;;;47.80;27.38;;;10.70;99.90;;;;;;5033748;28;20115;-52
2022/04/26 09:36:36;;;;;;;47.97;29.50;;;10.80;99.90;;;;;;5051667;28;20566;-51
2022/04/26 09:39:05;;;;;;;37.15;23.92;;;10.80;99.90;;;;;;5051908;28;20041;-51
2022/04/26 09:41:32;;;;;;;40.78;22.60;;;10.80;99.90;;;;;;5051698;28;20040;-51
2022/04/26 09:44:09;;;;;;;40.22;21.83;;;10.70;99.90;;;;;;5051591;28;20523;-53
2022/04/26 09:46:40;;;;;;;33.30;20.92;;;10.70;99.90;;;;;;5051267;28;20037;-52
2022/04/26 09:49:09;;;;;;;35.97;21.10;;;10.70;99.90;;;;;;5051169;28;20021;-52
2022/04/26 09:51:36;;;;;;;35.15;22.38;;;10.60;99.90;;;;;;5033567;28;20163;-53
2022/04/26 09:54:02;;;;;;;37.40;22.90;;;10.50;99.90;;;;;;5031251;28;20496;-53
2022/04/26 09:56:31;;;;;;;30.58;19.90;;;10.50;99.90;;;;;;5031387;28;20461;-51
2022/04/26 09:58:58;;;;;;;34.55;20.27;;;10.50;99.90;;;;;;5031181;28;20033;-51
2022/04/26 10:01:30;;;;;;;29.25;19.23;;;10.60;99.90;;;;;;5013257;28;20037;-52
2022/04/26 10:04:03;;;;;;;31.52;20.70;;;10.60;99.90;;;;;;5030111;28;20038;-52
2022/04/26 10:06:40;;;;;;;33.75;19.55;;;10.60;99.90;;;;;;5037954;28;20171;-51
2022/04/26 10:09:08;;;;;;;29.40;19.45;;;10.60;99.90;;;;;;5035133;28;20060;-50
2022/04/26 10:11:35;;;;;;;32.70;20.27;;;10.60;99.90;;;;;;5030898;28;20030;-51
2022/04/26 10:14:04;;;;;;;31.63;19.80;;;10.50;99.90;;;;;;5030833;28;20026;-52
2022/04/26 10:16:31;;;;;;;31.08;18.83;;;10.60;99.90;;;;;;5031073;28;20176;-50
2022/04/26 10:19:06;;;;;;;30.65;18.65;;;10.60;99.90;;;;;;5044407;28;20069;-51
2022/04/26 10:21:38;;;;;;;29.98;18.40;;;10.60;99.90;;;;;;5050608;28;20037;-51
2022/04/26 10:24:17;;;;;;;31.55;19.52;;;10.50;99.90;;;;;;5050831;28;20029;-51
2022/04/26 10:26:43;;;;;;;29.50;18.45;;;10.50;99.90;;;;;;5032484;28;20489;-53
2022/04/26 10:29:09;;;;;;;29.65;19.90;;;10.50;99.90;;;;;;5039530;28;20087;-53
2022/04/26 10:32:05;;;;;;;31.40;19.67;;;10.50;99.90;;;;;;5148868;23;20259;-54
2022/04/26 10:34:34;;;;;;;32.80;20.25;;;10.60;99.90;;;;;;5017360;28;20045;-52
2022/04/26 10:37:06;;;;;;;31.33;20.58;;;10.60;99.90;;;;;;5019496;28;20790;-52
2022/04/26 10:39:35;;;;;;;30.65;20.05;;;10.60;99.90;;;;;;5016781;28;20064;-52
2022/04/26 10:42:21;;;;;;;31.52;19.80;;;10.60;99.90;;;;;;5019861;28;20111;-51
2022/04/26 10:44:48;;;;;;;30.48;19.40;;;10.50;99.90;;;;;;5018120;28;20598;-51
2022/04/26 10:47:19;;;;;;;;;;;10.50;99.90;;;;;;5019842;28;20034;-53
2022/04/26 10:49:47;;;;;;;31.33;18.08;;;10.40;99.90;;;;;;5020573;28;19909;-52
2022/04/26 10:52:13;;;;;;;30.92;17.70;;;10.30;99.90;;;;;;5020739;28;20022;-52
2022/04/26 10:55:04;;;;;;;32.75;19.13;;;10.40;99.90;;;;;;5021337;28;20372;-51
2022/04/26 10:57:42;;;;;;;34.15;21.75;;;10.50;99.90;;;;;;4988215;28;20140;-51
2022/04/26 11:00:14;;;;;;;34.22;20.70;;;10.60;99.90;;;;;;5016560;28;20025;-53
2022/04/26 11:02:42;;;;;;;27.85;18.45;;;10.60;99.90;;;;;;5021048;28;20025;-53
2022/04/26 11:05:16;;;;;;;33.22;19.80;;;10.60;99.90;;;;;;5016104;28;20021;-54
2022/04/26 11:07:47;;;;;;;29.77;19.23;;;10.70;99.90;;;;;;5021871;28;20032;-53
2022/04/26 11:10:23;;;;;;;29.50;18.50;;;10.70;99.90;;;;;;5016359;28;20013;-53
2022/04/26 11:12:51;;;;;;;37.35;22.35;;;10.60;99.90;;;;;;5016397;28;20034;-52
2022/04/26 11:15:21;;;;;;;28.20;19.23;;;10.60;99.90;;;;;;5014641;28;20014;-50
2022/04/26 11:17:49;;;;;;;28.27;17.70;;;10.70;99.90;;;;;;5016768;28;20064;-53
2022/04/26 11:20:18;;;;;;;28.27;18.08;;;10.70;99.90;;;;;;5020621;28;20108;-51
2022/04/26 11:22:48;;;;;;;31.45;19.27;;;10.80;99.90;;;;;;5021026;28;20443;-51
2022/04/26 11:28:09;;;;;;;31.30;18.67;;;10.70;99.90;;;;;;5014747;28;20032;-53
2022/04/26 11:30:45;;;;;;;32.33;18.33;;;10.70;99.90;;;;;;5020919;28;20028;-53
2022/04/26 11:33:22;;;;;;;22.98;16.05;;;10.70;99.90;;;;;;5016123;28;20050;-52
2022/04/26 11:35:55;;;;;;;25.25;16.23;;;10.70;99.90;;;;;;5020214;28;20555;-53
2022/04/26 11:38:22;;;;;;;25.15;16.25;;;10.60;99.90;;;;;;5022556;28;20424;-52
2022/04/26 11:41:00;;;;;;;26.65;15.70;;;10.60;99.90;;;;;;5005035;28;20428;-51
2022/04/26 11:43:34;;;;;;;24.05;15.50;;;10.70;99.90;;;;;;5019343;28;20512;-50
2022/04/26 11:46:01;;;;;;;24.55;14.73;;;10.70;99.90;;;;;;5019340;28;20507;-51
2022/04/26 11:48:34;;;;;;;27.77;17.02;;;10.80;99.90;;;;;;5018077;28;20029;-51
2022/04/26 11:51:01;;;;;;;27.00;16.77;;;10.80;99.90;;;;;;5019090;28;20022;-51
2022/04/26 11:53:29;;;;;;;29.13;18.40;;;10.90;99.90;;;;;;5018034;28;20109;-52
2022/04/26 11:55:56;;;;;;;29.20;17.83;;;10.90;99.90;;;;;;5016918;28;20069;-53
2022/04/26 11:58:42;;;;;;;26.20;15.95;;;10.90;99.90;;;;;;5018358;28;20025;-52
2022/04/26 12:01:11;;;;;;;28.35;17.17;;;11.00;99.90;;;;;;5018316;28;20087;-51
2022/04/26 12:03:56;;;;;;;28.35;17.70;;;11.10;99.90;;;;;;5018947;28;20032;-51
2022/04/26 12:06:32;;;;;;;26.88;18.80;;;11.20;99.90;;;;;;5018742;28;20040;-51
2022/04/26 12:09:14;;;;;;;29.80;18.27;;;11.30;99.90;;;;;;5018763;28;20032;-51
2022/04/26 12:11:41;;;;;;;27.85;17.52;;;11.30;99.90;;;;;;5016845;28;20026;-52
2022/04/26 12:14:16;;;;;;;29.45;19.85;;;11.30;99.90;;;;;;5019619;28;20100;-51
2022/04/26 12:16:49;;;;;;;27.38;19.00;;;11.30;99.90;;;;;;5023146;28;20028;-50
2022/04/26 12:19:16;;;;;;;27.45;18.48;;;11.30;99.90;;;;;;5020965;28;20017;-51
2022/04/26 12:21:54;;;;;;;27.40;18.25;;;11.20;99.90;;;;;;5021120;28;20022;-50
2022/04/26 12:24:22;;;;;;;28.98;16.65;;;11.20;99.90;;;;;;5022630;28;20136;-51
2022/04/26 12:26:54;;;;;;;28.77;16.52;;;11.10;99.90;;;;;;5021364;28;20025;-57
2022/04/26 12:29:21;;;;;;;28.02;16.27;;;11.00;99.90;;;;;;5022303;28;20034;-52
2022/04/26 12:31:48;;;;;;;29.38;17.67;;;10.90;99.90;;;;;;5020896;28;20040;-53
2022/04/26 12:34:22;;;;;;;29.33;17.70;;;10.90;99.90;;;;;;5020405;28;20021;-51
2022/04/26 12:37:02;;;;;;;37.40;19.77;;;11.00;99.90;;;;;;5027254;28;20452;-51
2022/04/26 12:39:40;;;;;;;29.95;18.83;;;10.80;99.90;;;;;;5017127;28;20045;-52
2022/04/26 12:42:07;;;;;;;29.05;19.40;;;10.80;99.90;;;;;;5012229;28;20075;-51
2022/04/26 12:44:34;;;;;;;33.45;21.08;;;10.80;99.90;;;;;;5019724;28;20067;-52
2022/04/26 12:52:48;;;;;;;28.83;19.08;;;10.80;99.90;;;;;;5019447;28;20509;-52
2022/04/26 12:55:26;;;;;;;32.85;21.48;;;10.80;99.90;;;;;;5015859;28;20101;-52
2022/04/26 12:57:54;;;;;;;30.95;19.38;;;10.80;99.90;;;;;;5013374;28;20385;-52
2022/04/26 13:00:21;;;;;;;30.42;19.98;;;10.70;99.90;;;;;;5019792;28;20037;-52
2022/04/26 13:02:51;;;;;;;;;;;10.70;99.90;;;;;;5022308;28;20036;-51
2022/04/26 13:05:17;;;;;;;30.17;19.75;;;10.60;99.90;;;;;;5024527;28;19966;-52
2022/04/26 13:07:46;;;;;;;31.30;19.73;;;10.60;99.90;;;;;;5030928;28;20032;-51
2022/04/26 13:10:13;;;;;;;32.05;20.58;;;10.60;99.90;;;;;;5029824;28;20013;-51
2022/04/26 13:12:39;;;;;;;31.10;19.50;;;10.60;99.90;;;;;;5023641;28;20033;-50
2022/04/26 13:15:08;;;;;;;34.42;18.95;;;10.70;99.90;;;;;;5018954;28;20109;-52
2022/04/26 13:17:37;;;;;;;34.88;20.15;;;10.70;99.90;;;;;;5014539;28;20101;-50
2022/04/26 13:20:07;;;;;;;29.70;17.85;;;10.60;99.90;;;;;;5026699;28;20033;-51
2022/04/26 13:22:34;;;;;;;27.00;15.40;;;10.60;99.90;;;;;;5029294;28;20033;-51
2022/04/26 13:25:03;;;;;;;25.50;15.98;;;10.60;99.90;;;;;;5028919;28;20499;-51
2022/04/26 13:27:32;;;;;;;24.27;15.25;;;10.60;99.90;;;;;;5030674;28;20045;-51
2022/04/26 13:29:59;;;;;;;41.13;23.13;;;10.60;99.90;;;;;;5029364;28;20077;-51
2022/04/26 13:32:25;;;;;;;43.80;23.17;;;10.60;99.90;;;;;;5019533;28;20121;-51
2022/04/26 13:34:52;;;;;;;43.15;24.67;;;10.70;99.90;;;;;;5012826;28;20088;-51
2022/04/26 13:37:19;;;;;;;40.50;22.95;;;10.70;99.90;;;;;;5011463;28;20025;-50
2022/04/26 13:39:45;;;;;;;41.23;23.67;;;10.70;99.90;;;;;;5028775;28;20032;-51
2022/04/26 13:42:14;;;;;;;36.63;21.70;;;10.80;99.90;;;;;;5024687;28;20268;-51
2022/04/26 13:44:41;;;;;;;34.15;20.60;;;10.90;99.90;;;;;;5031229;28;20037;-50
2022/04/26 13:47:08;;;;;;;33.67;20.35;;;10.90;99.90;;;;;;5030857;28;20037;-51
2022/04/26 13:49:35;;;;;;;29.42;18.55;;;11.00;99.90;;;;;;5027552;28;20022;-51
2022/04/26 13:52:01;;;;;;;28.63;17.65;;;11.00;99.90;;;;;;5027827;28;20029;-51
2022/04/26 13:54:27;;;;;;;28.77;17.75;;;11.10;99.90;;;;;;5021750;28;20044;-50
2022/04/26 13:56:54;;;;;;;26.65;16.80;;;11.20;99.90;;;;;;5021335;28;20559;-50
2022/04/26 13:59:22;;;;;;;25.60;15.80;;;11.20;99.90;;;;;;5020202;28;20025;-50
2022/04/26 14:01:52;;;;;;;27.63;16.02;;;11.20;99.90;;;;;;5019303;28;20136;-49
2022/04/26 14:04:18;;;;;;;25.27;14.98;;;11.30;99.90;;;;;;5022550;28;20017;-49
2022/04/26 14:06:45;;;;;;;21.38;13.82;;;11.40;99.90;;;;;;5030547;28;20091;-52
2022/04/26 14:09:10;;;;;;;23.83;14.00;;;11.50;99.90;;;;;;5030586;28;20102;-50
2022/04/26 14:11:36;;;;;;;22.52;13.00;;;11.50;99.90;;;;;;5029957;28;20335;-52
2022/04/26 14:22:15;;;;;;;21.58;14.35;;;11.80;99.90;;;;;;5010987;28;20041;-50
2022/04/26 14:24:41;;;;;;;24.17;13.93;;;11.90;99.90;;;;;;5009079;28;20853;-52
2022/04/26 14:27:07;;;;;;;21.60;13.35;;;12.00;99.90;;;;;;5010827;28;20489;-52
2022/04/26 14:29:33;;;;;;;23.25;12.60;;;12.10;99.90;;;;;;5010553;28;20539;-50
2022/04/26 14:31:59;;;;;;;21.58;13.02;;;12.20;99.90;;;;;;5015307;28;20053;-49
2022/04/26 14:34:25;;;;;;;24.40;13.95;;;12.30;99.90;;;;;;5024880;28;20330;-51
2022/04/26 14:36:51;;;;;;;20.00;13.05;;;12.20;99.90;;;;;;5029409;28;20022;-51
2022/04/26 14:39:16;;;;;;;21.88;12.93;;;12.30;99.90;;;;;;5024434;28;20093;-52
2022/04/26 14:41:43;;;;;;;19.80;11.73;;;12.30;99.90;;;;;;5011896;28;20440;-51
2022/04/26 14:44:09;;;;;;;20.07;12.53;;;12.30;99.90;;;;;;5008973;28;20033;-52
2022/04/26 14:46:35;;;;;;;21.92;13.70;;;12.30;99.90;;;;;;5009238;28;20038;-51
2022/04/26 14:49:02;;;;;;;22.27;13.15;;;12.30;99.90;;;;;;5010108;28;20065;-50
2022/04/26 14:51:29;;;;;;;21.38;12.52;;;12.30;99.90;;;;;;5010369;28;20030;-51
2022/04/26 14:53:54;;;;;;;22.70;12.15;;;12.30;99.90;;;;;;5010128;28;20061;-52
2022/04/26 14:56:20;;;;;;;19.13;11.77;;;12.30;99.90;;;;;;5010205;28;20065;-51
2022/04/26 14:58:49;;;;;;;20.85;11.85;;;12.40;99.90;;;;;;5010025;28;20033;-50
2022/04/26 15:01:16;;;;;;;20.30;11.27;;;12.40;99.90;;;;;;5010145;28;20052;-50
2022/04/26 15:03:44;;;;;;;18.00;10.67;;;12.30;99.90;;;;;;5028522;28;20530;-50
2022/04/26 15:06:10;;;;;;;179.77;113.35;;;12.30;99.90;;;;;;5029787;28;20297;-52
2022/04/26 15:11:20;;;;;;;14.90;8.50;;;12.30;99.90;;;;;;5028292;28;20518;-50
2022/04/26 15:16:39;;;;;;;10.40;7.50;;;12.10;99.90;;;;;;5026539;28;20040;-51
2022/04/26 15:19:10;;;;;;;12.25;8.23;;;12.10;99.90;;;;;;5022882;28;20773;-52
2022/04/26 15:21:37;;;;;;;13.63;7.70;;;12.00;99.90;;;;;;5028838;28;20041;-51
2022/04/26 15:24:04;;;;;;;15.50;8.32;;;12.00;99.90;;;;;;5028094;28;20029;-51
2022/04/26 15:26:30;;;;;;;14.15;9.00;;;12.00;99.90;;;;;;5028440;28;20040;-51
2022/04/26 15:28:57;;;;;;;13.48;8.35;;;12.00;99.90;;;;;;5029135;28;20037;-51
2022/04/26 15:31:23;;;;;;;15.52;9.30;;;11.90;99.90;;;;;;5027392;28;20140;-52
2022/04/26 15:33:51;;;;;;;15.70;9.32;;;11.90;99.90;;;;;;5029131;28;20034;-52
2022/04/26 15:36:19;;;;;;;16.65;9.00;;;11.80;99.90;;;;;;5029388;28;20022;-50
2022/04/26 15:38:45;;;;;;;15.95;8.73;;;11.80;99.90;;;;;;5029071;28;20385;-52
2022/04/26 15:41:12;;;;;;;15.20;8.85;;;11.80;99.90;;;;;;5015927;28;20032;-50
2022/04/26 15:43:39;;;;;;;16.20;9.98;;;11.90;99.90;;;;;;5007873;28;20497;-49
2022/04/26 15:46:08;;;;;;;15.23;9.05;;;11.90;99.90;;;;;;5009104;28;20696;-50
2022/04/26 15:48:37;;;;;;;12.50;7.70;;;11.80;99.90;;;;;;5014386;28;20401;-50
2022/04/26 15:51:07;;;;;;;12.02;7.40;;;11.90;99.90;;;;;;5015889;28;20034;-50
2022/04/26 15:53:33;;;;;;;13.95;8.02;;;11.90;99.90;;;;;;5016073;28;20069;-51
2022/04/26 15:55:59;;;;;;;14.95;8.07;;;11.90;99.90;;;;;;5015997;28;20014;-50
2022/04/26 15:58:25;;;;;;;14.85;9.18;;;11.90;99.90;;;;;;5014868;28;20033;-51
2022/04/26 16:00:53;;;;;;;18.02;9.75;;;11.90;99.90;;;;;;5016088;28;20030;-51
2022/04/26 16:03:19;;;;;;;17.27;9.73;;;11.90;99.90;;;;;;5014888;28;20030;-51
2022/04/26 16:05:45;;;;;;;15.32;8.52;;;12.00;99.90;;;;;;5016000;28;20033;-52
2022/04/26 16:08:11;;;;;;;16.33;9.70;;;12.40;99.90;;;;;;5015704;28;20069;-51
2022/04/26 16:21:34;;;;;;;10.30;6.07;;;15.50;99.70;;;;;;5030480;28;20064;-54
2022/04/26 16:24:00;;;;;;;13.30;7.30;;;15.70;98.50;;;;;;5034216;28;20052;-53
2022/04/26 16:26:27;;;;;;;12.32;7.15;;;16.00;97.30;;;;;;5033776;28;20548;-52
2022/04/26 16:28:54;;;;;;;13.88;7.47;;;16.00;96.50;;;;;;5033389;28;20076;-52
2022/04/26 16:31:27;;;;;;;13.37;8.50;;;16.10;95.60;;;;;;5035177;28;20037;-53
2022/04/26 16:33:57;;;;;;;12.52;7.90;;;16.20;92.40;;;;;;5035543;28;20060;-52
2022/04/26 16:36:25;;;;;;;11.77;6.65;;;16.40;92.60;;;;;;5035170;28;20033;-52
2022/04/26 16:38:51;;;;;;;12.63;7.53;;;16.50;92.40;;;;;;5035213;28;20033;-53
2022/04/26 16:41:17;;;;;;;11.80;7.32;;;16.20;88.90;;;;;;5024205;28;20121;-53
2022/04/26 16:43:43;;;;;;;11.68;7.35;;;16.20;90.90;;;;;;5015505;28;20414;-52
2022/04/26 16:46:11;;;;;;;12.93;7.18;;;16.00;93.20;;;;;;5014703;28;20041;-53
2022/04/26 16:48:36;;;;;;;12.05;7.45;;;15.70;92.90;;;;;;5029005;28;20034;-53
2022/04/26 16:51:02;;;;;;;11.80;7.10;;;15.60;93.10;;;;;;5035241;28;20025;-52
2022/04/26 16:53:29;;;;;;;13.25;7.85;;;14.90;93.40;;;;;;5026631;28;20117;-53
2022/04/26 16:55:56;;;;;;;11.65;6.95;;;14.40;95.00;;;;;;5015604;28;20468;-50